createdAt,value
2022-08-04T00:02:27.272Z,37.13
2022-08-04T00:05:08.795Z,37.04
2022-08-04T00:07:45.385Z,36.95
2022-08-04T00:10:16.296Z,36.92
2022-08-04T00:12:48.363Z,36.94
2022-08-04T00:15:17.008Z,36.88
2022-08-04T00:17:54.249Z,36.88
2022-08-04T00:20:21.695Z,37.32
2022-08-04T00:22:52.025Z,37.23
2022-08-04T00:25:19.528Z,37.31
2022-08-04T00:27:46.995Z,37.10
2022-08-04T00:30:13.773Z,37.39
2022-08-04T00:32:41.147Z,37.53
2022-08-04T00:35:09.831Z,37.65
2022-08-04T00:37:38.080Z,37.59
2022-08-04T00:40:22.437Z,37.70
2022-08-04T00:43:08.121Z,37.93
2022-08-04T00:46:10.970Z,38.23
2022-08-04T00:48:42.603Z,38.32
2022-08-04T00:51:47.126Z,38.07
2022-08-04T00:54:16.879Z,38.35
2022-08-04T00:57:34.025Z,38.53
2022-08-04T01:00:14.528Z,38.97
2022-08-04T01:02:53.589Z,39.23
2022-08-04T01:05:46.611Z,39.04
2022-08-04T01:08:36.079Z,39.26
2022-08-04T01:11:56.805Z,39.53
2022-08-04T01:15:01.729Z,39.99
2022-08-04T01:17:40.305Z,39.86
2022-08-04T01:20:13.230Z,39.71
2022-08-04T01:23:04.108Z,39.70
2022-08-04T01:25:34.030Z,40.33
2022-08-04T01:28:29.922Z,41.26
2022-08-04T01:31:06.439Z,41.04
2022-08-04T01:34:02.961Z,41.37
2022-08-04T01:36:26.422Z,41.27
2022-08-04T01:38:54.380Z,41.85
2022-08-04T01:41:32.215Z,42.21
2022-08-04T01:44:02.749Z,42.59
2022-08-04T01:46:33.761Z,42.89
2022-08-04T01:49:02.808Z,43.16
2022-08-04T01:51:36.023Z,43.52
2022-08-04T01:54:02.790Z,44.28
2022-08-04T01:56:31.080Z,44.31
2022-08-04T01:58:58.002Z,44.21
2022-08-04T02:01:25.262Z,44.42
2022-08-04T02:04:21.987Z,44.69
2022-08-04T02:06:47.567Z,44.57
2022-08-04T02:09:20.325Z,44.71
2022-08-04T02:12:04.013Z,44.49
2022-08-04T02:14:55.885Z,44.55
2022-08-04T02:17:29.170Z,44.75
2022-08-04T02:20:05.486Z,45.09
2022-08-04T02:22:34.358Z,44.61
2022-08-04T02:25:10.002Z,44.49
2022-08-04T02:27:59.974Z,44.90
2022-08-04T02:31:05.794Z,45.30
2022-08-04T02:33:43.227Z,45.53
2022-08-04T02:36:16.580Z,45.53
2022-08-04T02:39:00.054Z,45.64
2022-08-04T02:41:29.380Z,45.65
2022-08-04T02:44:00.710Z,45.77
2022-08-04T02:46:28.826Z,45.78
2022-08-04T02:48:56.532Z,45.88
2022-08-04T02:51:29.373Z,46.08
2022-08-04T02:54:00.095Z,46.04
2022-08-04T02:56:30.976Z,47.19
2022-08-04T02:59:09.221Z,47.46
2022-08-04T03:01:36.240Z,47.97
2022-08-04T03:04:24.446Z,47.62
2022-08-04T03:07:20.020Z,47.33
2022-08-04T03:09:55.122Z,47.41
2022-08-04T03:12:32.140Z,48.54
2022-08-04T03:15:45.960Z,49.43
2022-08-04T03:18:21.923Z,49.13
2022-08-04T03:21:13.363Z,50.07
2022-08-04T03:24:02.199Z,49.15
2022-08-04T03:26:52.420Z,49.73
2022-08-04T03:29:47.403Z,49.74
2022-08-04T03:32:26.061Z,49.05
2022-08-04T03:35:47.052Z,49.30
2022-08-04T03:38:38.625Z,49.91
2022-08-04T03:41:59.874Z,49.39
2022-08-04T03:44:40.445Z,49.15
2022-08-04T03:47:54.907Z,48.50
2022-08-04T03:51:34.941Z,47.55
2022-08-04T03:54:18.935Z,47.47
2022-08-04T03:57:18.880Z,47.72
2022-08-04T04:00:05.001Z,47.26
2022-08-04T04:03:12.967Z,47.23
2022-08-04T04:06:10.183Z,47.33
2022-08-04T04:09:02.657Z,47.31
2022-08-04T04:11:57.132Z,47.23
2022-08-04T04:14:49.958Z,47.58
2022-08-04T04:17:44.490Z,48.10
2022-08-04T04:20:40.053Z,47.73
2022-08-04T04:23:24.549Z,47.70
2022-08-04T04:26:12.865Z,47.27
2022-08-04T04:29:17.763Z,46.92
2022-08-04T04:31:57.441Z,46.69
2022-08-04T04:34:45.861Z,46.09
2022-08-04T04:37:15.941Z,45.80
2022-08-04T04:40:18.238Z,45.53
2022-08-04T04:43:03.531Z,45.54
2022-08-04T04:46:11.144Z,44.88
2022-08-04T04:48:44.951Z,45.20
2022-08-04T04:51:25.986Z,44.86
2022-08-04T04:54:08.066Z,44.96
2022-08-04T04:56:43.810Z,44.92
2022-08-04T04:59:15.490Z,44.73
2022-08-04T05:02:19.720Z,44.38
2022-08-04T05:05:06.117Z,44.65
2022-08-04T05:08:42.990Z,45.39
2022-08-04T05:11:18.172Z,46.51
2022-08-04T05:14:37.802Z,47.19
2022-08-04T05:16:40.495Z,47.03
2022-08-04T05:19:07.136Z,47.06
2022-08-04T05:21:46.017Z,46.17
2022-08-04T05:24:17.703Z,45.82
2022-08-04T05:26:47.380Z,45.58
2022-08-04T05:29:25.967Z,44.78
2022-08-04T05:32:02.878Z,44.30
2022-08-04T05:34:35.548Z,43.17
2022-08-04T05:37:09.258Z,43.19
2022-08-04T05:39:53.199Z,43.39
2022-08-04T05:42:21.415Z,43.45
2022-08-04T05:44:51.404Z,42.88
2022-08-04T05:47:21.443Z,42.09
2022-08-04T05:50:01.045Z,41.65
2022-08-04T05:52:32.338Z,41.57
2022-08-04T05:55:01.696Z,41.17
2022-08-04T05:57:31.658Z,41.38
2022-08-04T06:00:14.855Z,41.34
2022-08-04T06:02:52.254Z,41.21
2022-08-04T06:05:19.535Z,40.73
2022-08-04T06:08:12.692Z,40.79
2022-08-04T06:10:37.604Z,40.55
2022-08-04T06:13:08.637Z,40.76
2022-08-04T06:15:39.173Z,40.76
2022-08-04T06:18:32.880Z,40.30
2022-08-04T06:21:03.745Z,39.92
2022-08-04T06:23:52.985Z,40.13
2022-08-04T06:26:27.668Z,40.14
2022-08-04T06:28:55.302Z,40.26
2022-08-04T06:32:27.056Z,40.49
2022-08-04T06:34:35.539Z,40.20
2022-08-04T06:37:03.906Z,40.29
2022-08-04T06:39:32.946Z,40.06
2022-08-04T06:42:21.944Z,39.89
2022-08-04T06:44:51.270Z,39.13
2022-08-04T06:47:21.340Z,37.50
2022-08-04T06:51:27.574Z,37.83
2022-08-04T06:52:44.751Z,37.79
2022-08-04T06:55:11.944Z,37.20
2022-08-04T06:57:40.990Z,37.05
2022-08-04T07:00:12.264Z,37.12
2022-08-04T07:02:44.072Z,36.75
2022-08-04T07:05:12.165Z,36.38
2022-08-04T07:07:56.917Z,36.09
2022-08-04T07:10:25.215Z,35.88
2022-08-04T07:12:53.950Z,36.15
2022-08-04T07:15:21.665Z,35.99
2022-08-04T07:17:52.354Z,36.32
2022-08-04T07:20:35.354Z,35.64
2022-08-04T07:23:07.326Z,35.85
2022-08-04T07:26:00.388Z,35.39
2022-08-04T07:28:25.702Z,35.49
2022-08-04T07:30:53.974Z,36.75
2022-08-04T07:33:21.817Z,35.02
2022-08-04T07:36:04.928Z,35.18
2022-08-04T07:38:50.834Z,35.04
2022-08-04T07:41:40.296Z,34.48
2022-08-04T07:44:08.194Z,34.42
2022-08-04T07:46:36.365Z,34.41
2022-08-04T07:49:03.912Z,34.43
2022-08-04T07:51:31.592Z,33.76
2022-08-04T07:54:00.194Z,34.21
2022-08-04T07:56:27.811Z,35.12
2022-08-04T07:58:55.318Z,35.68
2022-08-04T08:01:25.716Z,34.88
2022-08-04T08:03:54.292Z,33.86
2022-08-04T08:06:33.290Z,35.65
2022-08-04T08:09:12.409Z,34.23
2022-08-04T08:12:38.105Z,34.66
2022-08-04T08:14:30.688Z,34.53
2022-08-04T08:17:00.196Z,33.68
2022-08-04T08:19:26.993Z,33.68
2022-08-04T08:21:59.092Z,33.26
2022-08-04T08:24:31.779Z,34.44
2022-08-04T08:27:00.016Z,34.34
2022-08-04T08:29:29.324Z,34.25
2022-08-04T08:32:01.431Z,34.59
2022-08-04T08:34:31.923Z,33.71
2022-08-04T08:37:07.636Z,33.91
2022-08-04T08:40:04.856Z,33.73
2022-08-04T08:42:47.493Z,32.86
2022-08-04T08:45:46.513Z,33.33
2022-08-04T08:49:04.472Z,32.90
2022-08-04T08:52:03.565Z,32.08
2022-08-04T08:54:42.609Z,33.23
2022-08-04T08:57:24.524Z,32.37
2022-08-04T08:59:54.081Z,32.06
2022-08-04T09:03:04.790Z,32.76
2022-08-04T09:05:59.442Z,32.09
2022-08-04T09:09:00.681Z,32.70
2022-08-04T09:11:41.901Z,31.79
2022-08-04T09:14:23.922Z,31.42
2022-08-04T09:17:03.500Z,32.27
2022-08-04T09:19:42.278Z,31.96
2022-08-04T09:22:20.443Z,32.17
2022-08-04T09:25:10.979Z,33.71
2022-08-04T09:28:52.482Z,33.50
2022-08-04T09:31:17.203Z,33.16
2022-08-04T09:34:09.718Z,32.99
2022-08-04T09:36:48.336Z,33.03
2022-08-04T09:39:53.942Z,32.83
2022-08-04T09:43:05.168Z,32.46
2022-08-04T09:45:44.101Z,32.61
2022-08-04T09:48:22.704Z,32.88
2022-08-04T09:50:58.123Z,33.51
2022-08-04T09:53:36.768Z,32.66
2022-08-04T09:56:10.092Z,32.39
2022-08-04T09:58:58.203Z,32.61
2022-08-04T10:01:28.699Z,32.33
2022-08-04T10:04:02.666Z,32.81
2022-08-04T10:06:57.472Z,33.01
2022-08-04T10:09:47.919Z,31.38
2022-08-04T10:12:23.614Z,32.87
2022-08-04T10:15:10.869Z,30.22
2022-08-04T10:18:09.202Z,30.61
2022-08-04T10:20:59.023Z,31.10
2022-08-04T10:23:28.142Z,30.08
2022-08-04T10:26:15.258Z,30.85
2022-08-04T10:28:46.519Z,30.25
2022-08-04T10:31:20.751Z,30.31
2022-08-04T10:33:58.447Z,30.87
2022-08-04T10:36:31.887Z,31.45
2022-08-04T10:39:06.567Z,28.93
2022-08-04T10:42:11.254Z,29.54
2022-08-04T10:44:57.317Z,28.47
2022-08-04T10:47:31.968Z,28.40
2022-08-04T10:50:01.350Z,28.53
2022-08-04T10:52:55.088Z,28.23
2022-08-04T10:56:06.297Z,28.00
2022-08-04T10:58:48.027Z,29.93
2022-08-04T11:01:59.634Z,28.14
2022-08-04T11:04:27.179Z,28.37
2022-08-04T11:06:55.423Z,28.20
2022-08-04T11:09:23.095Z,28.28
2022-08-04T11:12:00.429Z,28.87
2022-08-04T11:14:39.531Z,27.57
2022-08-04T11:17:40.707Z,28.46
2022-08-04T11:20:35.954Z,26.30
2022-08-04T11:23:08.844Z,27.77
2022-08-04T11:25:41.517Z,26.30
2022-08-04T11:28:23.505Z,26.61
2022-08-04T11:30:59.374Z,25.76
2022-08-04T11:33:43.979Z,25.21
2022-08-04T11:36:36.455Z,26.19
2022-08-04T11:39:15.694Z,25.52
2022-08-04T11:41:51.328Z,25.64
2022-08-04T11:44:43.195Z,25.98
2022-08-04T11:47:30.387Z,25.50
2022-08-04T11:50:05.330Z,26.59
2022-08-04T11:52:34.222Z,25.00
2022-08-04T11:55:05.635Z,26.86
2022-08-04T11:57:36.364Z,25.43
2022-08-04T12:00:10.817Z,25.45
2022-08-04T12:03:26.070Z,24.20
2022-08-04T12:06:09.355Z,24.64
2022-08-04T12:09:02.761Z,25.80
2022-08-04T12:11:35.654Z,23.75
2022-08-04T12:14:40.027Z,23.57
2022-08-04T12:17:15.284Z,24.61
2022-08-04T12:20:04.580Z,25.28
2022-08-04T12:22:41.727Z,23.21
2022-08-04T12:25:21.486Z,22.97
2022-08-04T12:27:55.100Z,22.31
2022-08-04T12:30:57.761Z,22.76
2022-08-04T12:33:20.630Z,23.70
2022-08-04T12:36:10.830Z,24.34
2022-08-04T12:38:48.624Z,24.28
2022-08-04T12:41:21.642Z,25.46
2022-08-04T12:43:50.235Z,25.10
2022-08-04T12:46:27.081Z,25.43
2022-08-04T12:49:01.548Z,25.06
2022-08-04T12:51:31.124Z,24.88
2022-08-04T12:54:28.868Z,24.76
2022-08-04T12:57:01.402Z,25.61
2022-08-04T12:59:28.569Z,25.89
2022-08-04T13:02:09.076Z,25.51
2022-08-04T13:04:42.644Z,26.90
2022-08-04T13:07:18.817Z,27.95
2022-08-04T13:09:47.122Z,25.75
2022-08-04T13:12:16.530Z,27.77
2022-08-04T13:14:47.323Z,28.29
2022-08-04T13:17:14.455Z,27.23
2022-08-04T13:19:47.281Z,27.72
2022-08-04T13:22:30.123Z,28.21
2022-08-04T13:26:40.516Z,25.59
2022-08-04T13:27:48.659Z,27.83
2022-08-04T13:30:23.122Z,28.23
2022-08-04T13:32:57.754Z,26.75
2022-08-04T13:35:55.970Z,27.70
2022-08-04T13:38:16.850Z,25.34
2022-08-04T13:40:44.555Z,24.14
2022-08-04T13:44:16.999Z,23.90
2022-08-04T13:46:28.753Z,26.23
2022-08-04T13:49:25.922Z,26.95
2022-08-04T13:51:57.349Z,24.68
2022-08-04T13:54:46.978Z,25.19
2022-08-04T13:57:31.750Z,26.41
2022-08-04T14:00:09.819Z,24.02
2022-08-04T14:02:44.111Z,25.31
2022-08-04T14:05:27.395Z,25.42
2022-08-04T14:08:05.468Z,25.33
2022-08-04T14:10:33.241Z,24.83
2022-08-04T14:13:04.340Z,24.29
2022-08-04T14:16:01.306Z,25.71
2022-08-04T14:18:27.534Z,24.78
2022-08-04T14:21:11.250Z,23.32
2022-08-04T14:23:53.750Z,24.75
2022-08-04T14:26:32.354Z,25.62
2022-08-04T14:29:26.657Z,23.15
2022-08-04T14:32:01.903Z,24.62
2022-08-04T14:34:30.622Z,23.30
2022-08-04T14:37:16.446Z,23.88
2022-08-04T14:40:17.752Z,23.79
2022-08-04T14:42:54.496Z,23.02
2022-08-04T14:45:54.853Z,21.64
2022-08-04T14:48:22.530Z,21.88
2022-08-04T14:50:50.907Z,22.67
2022-08-04T14:53:20.140Z,20.25
2022-08-04T14:55:52.242Z,19.29
2022-08-04T14:58:37.259Z,17.28
2022-08-04T15:01:12.144Z,16.34
2022-08-04T15:03:52.253Z,16.40
2022-08-04T15:06:26.086Z,15.00
2022-08-04T15:08:55.348Z,14.00
2022-08-04T15:11:24.230Z,15.34
2022-08-04T15:13:56.171Z,15.40
2022-08-04T15:16:24.755Z,14.34
2022-08-04T15:18:54.497Z,15.53
2022-08-04T15:21:22.456Z,15.91
2022-08-04T15:23:51.073Z,16.91
2022-08-04T15:26:51.947Z,15.42
2022-08-04T15:30:00.416Z,14.64
2022-08-04T15:32:34.273Z,13.88
2022-08-04T15:35:08.573Z,12.93
2022-08-04T15:37:54.037Z,12.35
2022-08-04T15:40:46.884Z,11.47
2022-08-04T15:43:22.806Z,14.19
2022-08-04T15:46:41.999Z,14.50
2022-08-04T15:48:41.837Z,16.21
2022-08-04T15:51:14.465Z,16.46
2022-08-04T15:54:01.365Z,18.29
2022-08-04T15:56:28.854Z,19.97
2022-08-04T15:58:57.012Z,19.26
2022-08-04T16:01:24.372Z,19.83
2022-08-04T16:03:54.534Z,20.06
2022-08-04T16:06:42.179Z,20.81
2022-08-04T16:09:08.872Z,21.91
2022-08-04T16:11:40.141Z,20.75
2022-08-04T16:14:11.069Z,20.06
2022-08-04T16:16:45.291Z,21.58
2022-08-04T16:19:51.593Z,21.33
2022-08-04T16:22:39.753Z,23.22
2022-08-04T16:25:08.610Z,22.79
2022-08-04T16:27:44.867Z,20.93
2022-08-04T16:30:14.907Z,20.49
2022-08-04T16:32:51.904Z,22.23
2022-08-04T16:35:26.103Z,21.82
2022-08-04T16:37:55.791Z,22.18
2022-08-04T16:40:39.511Z,21.27
2022-08-04T16:43:09.575Z,21.12
2022-08-04T16:46:01.637Z,21.58
2022-08-04T16:48:30.745Z,21.43
2022-08-04T16:51:13.011Z,20.15
2022-08-04T16:53:53.137Z,21.14
2022-08-04T16:56:28.617Z,22.51
2022-08-04T16:58:55.765Z,22.86
2022-08-04T17:01:33.750Z,23.24
2022-08-04T17:04:05.881Z,23.37
2022-08-04T17:06:38.460Z,22.11
2022-08-04T17:09:10.129Z,21.31
2022-08-04T17:11:37.149Z,21.59
2022-08-04T17:14:06.079Z,22.69
2022-08-04T17:16:38.087Z,21.82
2022-08-04T17:19:24.422Z,22.90
2022-08-04T17:22:04.221Z,23.17
2022-08-04T17:24:38.075Z,21.73
2022-08-04T17:28:08.843Z,22.85
2022-08-04T17:29:52.472Z,23.89
2022-08-04T17:32:21.556Z,22.33
2022-08-04T17:35:00.226Z,23.11
2022-08-04T17:37:41.218Z,22.97
2022-08-04T17:40:22.669Z,24.24
2022-08-04T17:43:03.025Z,24.44
2022-08-04T17:46:28.568Z,22.63
2022-08-04T17:49:16.594Z,23.79
2022-08-04T17:52:06.832Z,24.11
2022-08-04T17:54:40.352Z,23.44
2022-08-04T17:57:19.653Z,21.72
2022-08-04T17:59:59.982Z,22.32
2022-08-04T18:02:31.879Z,23.50
2022-08-04T18:05:06.933Z,23.40
2022-08-04T18:08:38.069Z,23.59
2022-08-04T18:13:26.332Z,24.47
2022-08-04T18:16:14.491Z,23.87
2022-08-04T18:19:08.960Z,23.43
2022-08-04T18:21:46.580Z,23.07
2022-08-04T18:24:34.596Z,24.11
2022-08-04T18:27:06.545Z,22.90
2022-08-04T18:29:38.972Z,22.65
2022-08-04T18:32:09.142Z,23.94
2022-08-04T18:34:40.663Z,23.08
2022-08-04T18:38:06.716Z,23.89
2022-08-04T18:40:30.307Z,22.94
2022-08-04T18:42:56.222Z,23.63
2022-08-04T18:45:24.109Z,23.36
2022-08-04T18:48:01.242Z,23.21
2022-08-04T18:50:58.524Z,23.48
2022-08-04T18:53:16.374Z,23.36
2022-08-04T18:55:57.988Z,23.67
2022-08-04T18:58:27.421Z,24.23
2022-08-04T19:00:56.142Z,24.47
2022-08-04T19:03:30.765Z,24.16
2022-08-04T19:06:01.914Z,23.86
2022-08-04T19:08:33.345Z,23.72
2022-08-04T19:11:37.493Z,23.28
2022-08-04T19:13:57.871Z,23.62
2022-08-04T19:16:26.483Z,23.55
2022-08-04T19:18:53.120Z,23.06
2022-08-04T19:22:00.107Z,23.85
2022-08-04T19:24:26.897Z,23.45
2022-08-04T19:26:56.075Z,23.53
2022-08-04T19:29:23.019Z,23.96
2022-08-04T19:31:49.713Z,23.89
2022-08-04T19:34:34.937Z,23.85
2022-08-04T19:37:01.781Z,24.32
2022-08-04T19:39:31.354Z,23.71
2022-08-04T19:44:49.799Z,24.25
2022-08-04T19:48:12.169Z,24.58
2022-08-04T19:50:10.395Z,24.55
2022-08-04T19:52:37.781Z,24.58
2022-08-04T19:55:09.932Z,24.94
2022-08-04T19:57:46.000Z,25.16
2022-08-04T20:00:14.200Z,25.38
2022-08-04T20:02:41.934Z,25.50
2022-08-04T20:05:09.488Z,25.31
2022-08-04T20:07:44.018Z,25.70
2022-08-04T20:10:14.081Z,25.57
2022-08-04T20:12:42.206Z,26.09
2022-08-04T20:15:11.085Z,26.25
2022-08-04T20:17:55.826Z,26.17
2022-08-04T20:20:29.809Z,26.07
2022-08-04T20:22:57.760Z,25.70
2022-08-04T20:25:37.264Z,26.17
2022-08-04T20:28:05.580Z,25.76
2022-08-04T20:30:35.149Z,26.18
2022-08-04T20:33:04.404Z,25.61
2022-08-04T20:36:00.845Z,25.16
2022-08-04T20:38:33.620Z,26.21
2022-08-04T20:41:01.819Z,25.43
2022-08-04T20:43:31.276Z,25.62
2022-08-04T20:45:59.422Z,26.07
2022-08-04T20:48:33.566Z,26.38
2022-08-04T20:51:00.678Z,25.17
2022-08-04T20:53:46.655Z,26.84
2022-08-04T20:56:19.373Z,26.75
2022-08-04T20:58:59.903Z,26.15
2022-08-04T21:01:30.232Z,25.99
2022-08-04T21:04:20.314Z,26.37
2022-08-04T21:06:57.283Z,26.42
2022-08-04T21:09:37.546Z,26.19
2022-08-04T21:12:10.612Z,26.13
2022-08-04T21:14:53.829Z,26.86
2022-08-04T21:17:21.112Z,26.98
2022-08-04T21:20:08.252Z,27.18
2022-08-04T21:22:40.290Z,27.10
2022-08-04T21:25:15.798Z,26.53
2022-08-04T21:27:44.237Z,26.87
2022-08-04T21:30:24.140Z,27.02
2022-08-04T21:32:58.756Z,27.16
2022-08-04T21:35:36.738Z,27.58
2022-08-04T21:38:16.409Z,27.88
2022-08-04T21:41:01.853Z,27.79
2022-08-04T21:46:16.806Z,27.96
2022-08-04T21:48:45.297Z,27.99
2022-08-04T21:51:56.953Z,28.19
2022-08-04T21:54:16.955Z,28.39
2022-08-04T21:56:51.419Z,28.76
2022-08-04T21:59:23.271Z,28.96
2022-08-04T22:01:54.642Z,29.25
2022-08-04T22:04:21.888Z,29.14
2022-08-04T22:06:51.935Z,29.55
2022-08-04T22:09:21.806Z,29.27
2022-08-04T22:11:50.660Z,29.26
2022-08-04T22:14:28.867Z,29.83
2022-08-04T22:16:57.705Z,29.72
2022-08-04T22:19:50.161Z,29.96
2022-08-04T22:22:24.706Z,29.54
2022-08-04T22:24:58.821Z,29.71
2022-08-04T22:27:47.295Z,29.87
2022-08-04T22:30:17.239Z,29.81
2022-08-04T22:32:46.455Z,29.77
2022-08-04T22:35:36.368Z,29.97
2022-08-04T22:38:06.537Z,30.22
2022-08-04T22:40:49.952Z,30.47
2022-08-04T22:43:32.311Z,30.42
2022-08-04T22:46:03.559Z,31.09
2022-08-04T22:48:32.569Z,31.38
2022-08-04T22:51:00.660Z,31.53
2022-08-04T22:53:27.973Z,32.11
2022-08-04T22:56:06.348Z,32.08
2022-08-04T22:58:36.307Z,32.85
2022-08-04T23:01:08.391Z,33.12
2022-08-04T23:03:40.308Z,33.52
2022-08-04T23:06:10.565Z,33.42
2022-08-04T23:08:43.320Z,34.38
2022-08-04T23:11:14.731Z,34.60
2022-08-04T23:13:41.854Z,34.79
2022-08-04T23:16:10.000Z,34.99
2022-08-04T23:18:41.858Z,34.85
2022-08-04T23:21:10.231Z,35.05
2022-08-04T23:23:38.225Z,35.66
2022-08-04T23:26:22.450Z,35.90
2022-08-04T23:28:55.660Z,36.36
2022-08-04T23:31:22.466Z,36.02
2022-08-04T23:33:51.746Z,35.82
2022-08-04T23:36:29.757Z,35.66
2022-08-04T23:39:03.979Z,36.32
2022-08-04T23:41:54.419Z,36.51
2022-08-04T23:44:25.089Z,36.46
2022-08-04T23:47:03.692Z,36.87
2022-08-04T23:49:43.887Z,36.76
2022-08-04T23:52:28.065Z,37.11
2022-08-04T23:54:58.845Z,37.47
2022-08-04T23:58:02.058Z,37.46
